Time;durP1;ratioP1;P1;durP2;ratioP2;P2;SDS_P1;SDS_P2;PMS_P1;PMS_P2;Temp;Humidity;BMP_temperature;BMP_pressure;BME280_temperature;BME280_humidity;BME280_pressure;Samples;Min_cycle;Max_cycle;Signal;HPM_P1;HPM_P2
2023/07/29 00:03:10;;;;;;;2.38;1.95;;;;;;;21.28;54.01;99250.41;10334899;28;20708;-72
2023/07/29 00:08:12;;;;;;;2.15;1.83;;;;;;;20.58;55.15;99267.00;10337805;28;20249;-71
2023/07/29 00:13:14;;;;;;;1.95;1.77;;;;;;;22.53;51.26;99218.25;10344082;28;20432;-70
2023/07/29 00:18:16;;;;;;;2.10;2.00;;;;;;;21.55;53.38;99261.09;10342510;28;20234;-72
2023/07/29 00:23:21;;;;;;;1.85;1.70;;;;;;;22.95;50.28;99218.88;10339428;28;20360;-72
2023/07/29 00:28:23;;;;;;;1.85;1.75;;;;;;;22.41;51.27;99244.19;10342533;28;20615;-72
2023/07/29 00:33:24;;;;;;;2.20;2.10;;;;;;;22.07;51.73;99267.41;10344375;28;20290;-72
2023/07/29 00:38:26;;;;;;;2.53;1.67;;;;;;;22.06;51.95;99257.56;10338759;28;20268;-72
2023/07/29 00:43:28;;;;;;;4.68;2.00;;;;;;;21.06;54.14;99237.03;10342853;28;20236;-72
2023/07/29 00:48:30;;;;;;;2.15;1.90;;;;;;;22.33;51.73;99199.22;10335908;28;20232;-72
2023/07/29 00:53:32;;;;;;;2.58;1.60;;;;;;;20.90;53.96;99263.34;10344869;28;20255;-72
2023/07/29 00:58:34;;;;;;;2.17;1.95;;;;;;;22.41;51.75;99168.66;10342942;28;20668;-72
2023/07/29 01:03:36;;;;;;;2.28;2.00;;;;;;;21.37;52.91;99237.97;10342461;28;20245;-71
2023/07/29 01:08:50;;;;;;;1.98;1.88;;;;;;;20.96;54.07;99175.25;10334416;28;20236;-72
2023/07/29 01:14:12;;;;;;;6.13;2.10;;;;;;;20.46;55.37;99191.13;10339263;28;20745;-71
2023/07/29 01:19:37;;;;;;;2.20;2.00;;;;;;;20.42;55.62;99160.13;10335784;28;20237;-72
2023/07/29 01:24:39;;;;;;;2.33;1.88;;;;;;;20.37;55.65;99164.72;10333213;28;20356;-69
2023/07/29 01:29:41;;;;;;;1.80;1.70;;;;;;;20.52;55.10;99150.38;10336839;28;20617;-72
2023/07/29 01:34:53;;;;;;;2.03;1.92;;;;;;;20.10;56.32;99171.06;10336444;28;20848;-72
2023/07/29 01:39:58;;;;;;;1.83;1.73;;;;;;;20.56;54.79;99149.56;10334862;28;20252;-72
2023/07/29 01:45:00;;;;;;;2.10;1.90;;;;;;;20.46;55.44;99146.81;10332486;28;20233;-72
2023/07/29 01:50:03;;;;;;;2.60;1.80;;;;;;;20.88;54.96;99136.91;10330060;28;20229;-72
2023/07/29 01:55:05;;;;;;;2.08;1.90;;;;;;;20.48;54.72;99194.38;10329178;28;20711;-72
2023/07/29 02:00:07;;;;;;;3.05;2.05;;;;;;;20.58;55.42;99182.75;10336622;28;20240;-72
2023/07/29 02:05:09;;;;;;;4.28;1.90;;;;;;;20.80;54.40;99198.06;10335539;28;20229;-73
2023/07/29 02:10:11;;;;;;;2.20;2.00;;;;;;;21.08;54.54;99168.78;10334693;28;20659;-69
2023/07/29 02:15:13;;;;;;;2.08;1.95;;;;;;;21.34;54.14;99137.78;10330401;28;20237;-72
2023/07/29 02:20:15;;;;;;;2.38;2.15;;;;;;;20.92;55.47;99152.44;10333424;28;20528;-72
2023/07/29 02:25:17;;;;;;;6.20;2.13;;;;;;;21.93;53.36;99111.88;10332501;28;20768;-70
2023/07/29 02:30:18;;;;;;;2.60;2.40;;;;;;;21.21;54.55;99160.09;10332811;28;20261;-72
2023/07/29 02:35:20;;;;;;;2.72;2.42;;;;;;;21.33;54.18;99160.63;10337445;28;20406;-71
2023/07/29 02:40:22;;;;;;;2.70;2.30;;;;;;;20.97;55.26;99149.72;10330518;28;20692;-71
2023/07/29 02:45:24;;;;;;;2.72;2.53;;;;;;;20.43;56.76;99163.63;10332721;28;20238;-71
2023/07/29 02:50:26;;;;;;;3.20;2.90;;;;;;;21.81;54.13;99100.44;10332317;28;20233;-72
2023/07/29 02:55:28;;;;;;;4.30;3.45;;;;;;;21.32;55.45;99101.84;10328649;28;20226;-72
2023/07/29 03:00:31;;;;;;;3.10;2.80;;;;;;;21.01;55.34;99115.44;10332327;28;20348;-71
2023/07/29 03:05:34;;;;;;;5.38;2.72;;;;;;;21.22;54.78;99099.13;10328284;28;20252;-71
2023/07/29 03:10:36;;;;;;;4.78;2.50;;;;;;;22.44;51.50;99080.91;10327809;28;20276;-72
2023/07/29 03:15:38;;;;;;;2.78;2.00;;;;;;;21.34;54.12;99107.84;10331670;28;20237;-71
2023/07/29 03:20:40;;;;;;;2.50;2.30;;;;;;;21.03;54.95;99120.63;10331790;28;20267;-72
2023/07/29 03:25:42;;;;;;;2.42;2.22;;;;;;;20.96;54.90;99111.91;10327290;28;20233;-72
2023/07/29 03:30:43;;;;;;;2.58;2.38;;;;;;;21.44;53.93;99093.44;10327856;28;20243;-73
2023/07/29 03:35:45;;;;;;;2.28;2.08;;;;;;;20.13;56.84;99143.38;10330215;28;20284;-73
2023/07/29 03:40:47;;;;;;;5.80;2.40;;;;;;;19.43;59.04;99143.44;10329875;28;20276;-72
2023/07/29 03:45:49;;;;;;;3.13;2.78;;;;;;;19.45;59.53;99156.75;10330125;28;20238;-70
2023/07/29 03:50:50;;;;;;;3.73;2.77;;;;;;;19.26;60.55;99096.66;10336309;28;20269;-72
2023/07/29 03:55:52;;;;;;;3.20;2.92;;;;;;;19.65;59.90;99082.84;10338683;28;20733;-72
2023/07/29 04:00:54;;;;;;;3.30;2.77;;;;;;;20.28;57.82;99120.94;10339340;28;20239;-72
2023/07/29 04:05:56;;;;;;;2.93;2.53;;;;;;;20.01;58.58;99129.19;10337418;28;20225;-72
2023/07/29 04:10:58;;;;;;;3.10;2.80;;;;;;;19.95;58.75;99131.06;10337417;28;20234;-70
2023/07/29 04:15:59;;;;;;;4.07;2.75;;;;;;;20.60;57.66;99084.66;10341214;28;20304;-72
2023/07/29 04:21:01;;;;;;;3.45;2.63;;;;;;;20.61;57.48;99088.97;10339555;28;20653;-71
2023/07/29 04:26:03;;;;;;;2.80;2.50;;;;;;;20.66;56.97;99108.81;10338169;28;20226;-73
2023/07/29 04:31:05;;;;;;;4.00;2.90;;;;;;;19.61;59.80;99138.72;10338637;28;20245;-73
2023/07/29 04:36:07;;;;;;;4.65;2.95;;;;;;;19.80;59.24;99118.22;10337621;28;20856;-72
2023/07/29 04:41:08;;;;;;;3.55;2.80;;;;;;;20.59;58.05;99081.09;10336165;28;20360;-73
2023/07/29 04:46:10;;;;;;;3.17;2.60;;;;;;;21.47;55.74;99067.59;10342388;28;20671;-72
2023/07/29 04:51:12;;;;;;;3.23;2.93;;;;;;;20.54;57.49;99118.31;10339191;28;20287;-73
2023/07/29 04:56:14;;;;;;;3.37;2.80;;;;;;;20.56;57.92;99132.44;10333076;28;20236;-72
2023/07/29 05:01:19;;;;;;;2.57;2.37;;;;;;;20.30;58.23;99129.66;10333961;28;20631;-72
2023/07/29 05:06:20;;;;;;;3.23;2.70;;;;;;;20.23;58.32;99150.81;10342069;28;20396;-72
2023/07/29 05:11:22;;;;;;;2.53;2.30;;;;;;;20.86;57.24;99131.75;10343063;28;20234;-69
2023/07/29 05:16:24;;;;;;;2.80;2.60;;;;;;;20.85;56.90;99144.53;10337154;28;20427;-69
2023/07/29 05:21:25;;;;;;;3.93;2.73;;;;;;;20.74;58.17;99110.22;10342803;28;20584;-69
2023/07/29 05:26:27;;;;;;;6.20;2.70;;;;;;;20.17;58.63;99166.25;10342470;28;20657;-69
2023/07/29 05:31:29;;;;;;;3.93;2.50;;;;;;;20.99;57.20;99120.34;10339442;28;20233;-70
2023/07/29 05:36:31;;;;;;;3.05;2.60;;;;;;;20.55;58.65;99147.94;10341675;28;20248;-69
2023/07/29 05:41:33;;;;;;;3.10;2.63;;;;;;;20.65;59.13;99137.09;10336187;28;20237;-67
2023/07/29 05:46:34;;;;;;;3.20;2.90;;;;;;;20.09;60.00;99155.84;10341672;28;20338;-69
2023/07/29 05:51:36;;;;;;;3.53;3.00;;;;;;;20.15;59.83;99148.56;10342889;28;20593;-69
2023/07/29 05:56:38;;;;;;;4.65;2.80;;;;;;;19.67;60.85;99192.78;10343773;28;20234;-69
2023/07/29 06:01:40;;;;;;;3.70;3.00;;;;;;;20.13;59.48;99167.84;10343177;28;20491;-69
2023/07/29 06:06:42;;;;;;;4.40;3.20;;;;;;;19.78;60.49;99182.00;10337446;28;20332;-69
2023/07/29 06:11:44;;;;;;;3.77;3.43;;;;;;;20.47;58.85;99175.63;10337006;28;20242;-69
2023/07/29 06:16:45;;;;;;;3.93;3.53;;;;;;;20.17;59.58;99206.19;10339876;28;20734;-69
2023/07/29 06:21:48;;;;;;;6.20;3.23;;;;;;;20.86;58.42;99175.25;10330672;28;20601;-69
2023/07/29 06:26:50;;;;;;;3.28;3.00;;;;;;;20.38;58.91;99231.53;10341302;28;20238;-69
2023/07/29 06:31:51;;;;;;;3.83;3.37;;;;;;;19.84;60.12;99249.66;10334605;28;20230;-70
2023/07/29 06:36:53;;;;;;;3.37;3.00;;;;;;;20.59;58.65;99206.13;10335824;28;20667;-69
2023/07/29 06:41:54;;;;;;;3.60;2.90;;;;;;;20.05;59.93;99233.50;10335544;28;20734;-68
2023/07/29 06:46:58;;;;;;;3.58;2.72;;;;;;;19.66;60.43;99241.88;10340586;28;20260;-69
2023/07/29 06:51:59;;;;;;;3.10;2.80;;;;;;;20.11;59.53;99229.75;10336049;28;20685;-68
2023/07/29 06:57:01;;;;;;;3.53;3.10;;;;;;;20.53;58.94;99199.03;10332252;28;20240;-69
2023/07/29 07:02:03;;;;;;;5.20;3.37;;;;;;;20.38;58.80;99235.09;10337332;28;20822;-68
2023/07/29 07:07:05;;;;;;;3.25;2.90;;;;;;;20.21;59.86;99239.88;10335800;28;20622;-68
2023/07/29 07:12:07;;;;;;;3.53;3.03;;;;;;;21.31;58.03;99184.56;10336543;28;20235;-68
2023/07/29 07:17:09;;;;;;;6.10;2.80;;;;;;;20.67;59.01;99246.38;10339689;28;20234;-69
2023/07/29 07:22:14;;;;;;;3.97;3.13;;;;;;;21.34;58.24;99203.09;10339495;28;20664;-69
2023/07/29 07:27:15;;;;;;;3.10;2.90;;;;;;;21.44;58.25;99215.88;10344797;28;20265;-69
2023/07/29 07:32:17;;;;;;;3.00;2.80;;;;;;;22.33;56.60;99189.13;10337149;28;20276;-68
2023/07/29 07:37:19;;;;;;;5.32;2.72;;;;;;;22.62;56.56;99210.34;10339602;28;20235;-69
2023/07/29 07:42:21;;;;;;;2.70;2.50;;;;;;;21.42;58.49;99237.13;10345340;28;20268;-69
2023/07/29 07:47:22;;;;;;;3.03;2.53;;;;;;;22.61;56.15;99227.78;10342928;28;20312;-69
2023/07/29 07:52:24;;;;;;;5.15;2.50;;;;;;;21.88;57.10;99269.00;10340274;28;20225;-69
2023/07/29 07:57:26;;;;;;;2.47;2.28;;;;;;;22.45;56.29;99248.78;10339982;28;20321;-69
2023/07/29 08:02:28;;;;;;;3.15;2.40;;;;;;;21.34;58.21;99295.59;10337094;28;20245;-68
2023/07/29 08:07:29;;;;;;;4.75;2.40;;;;;;;22.02;56.93;99234.72;10338902;28;20391;-68
2023/07/29 08:12:31;;;;;;;5.25;2.33;;;;;;;22.25;56.45;99230.59;10342484;28;20567;-68
2023/07/29 08:17:33;;;;;;;2.60;2.33;;;;;;;22.83;54.43;99249.22;10301498;28;20603;-69
2023/07/29 08:22:35;;;;;;;4.07;2.13;;;;;;;22.40;55.79;99254.25;10300618;28;20356;-69
2023/07/29 08:27:36;;;;;;;2.83;2.20;;;;;;;21.98;56.11;99274.47;10337118;28;20251;-69
2023/07/29 08:32:38;;;;;;;2.72;2.53;;;;;;;22.82;55.15;99277.59;10294534;28;20237;-69
2023/07/29 08:37:41;;;;;;;3.67;2.20;;;;;;;21.60;57.66;99292.97;10335499;28;20233;-69
2023/07/29 08:42:45;;;;;;;4.10;2.58;;;;;;;21.11;59.61;99271.59;10339455;28;20217;-68
2023/07/29 08:47:50;;;;;;;4.55;2.60;;;;;;;21.87;57.70;99254.56;10338121;28;20237;-70
2023/07/29 08:52:52;;;;;;;4.78;2.60;;;;;;;22.41;56.93;99244.97;10332817;28;20250;-69
2023/07/29 08:57:55;;;;;;;2.22;2.05;;;;;;;21.94;58.19;99267.94;10299442;28;20238;-69
2023/07/29 09:03:02;;;;;;;5.35;2.40;;;;;;;21.90;58.98;99245.06;10296345;28;20713;-69
2023/07/29 09:08:05;;;;;;;2.55;2.28;;;;;;;22.15;57.50;99258.66;10302828;28;20249;-69
2023/07/29 09:13:07;;;;;;;4.45;2.50;;;;;;;23.44;55.59;99228.16;10334674;28;20237;-70
2023/07/29 09:18:16;;;;;;;2.55;1.95;;;;;;;22.80;55.55;99257.97;10327838;28;20236;-69
2023/07/29 09:23:17;;;;;;;2.08;1.90;;;;;;;22.25;57.02;99281.53;10309099;28;20660;-68
2023/07/29 09:28:19;;;;;;;2.17;1.80;;;;;;;22.26;56.55;99285.91;10332296;28;20253;-69
2023/07/29 09:33:21;;;;;;;1.70;1.60;;;;;;;22.50;55.69;99264.31;10337768;28;20598;-69
2023/07/29 09:38:27;;;;;;;1.85;1.70;;;;;;;22.12;56.17;99250.22;10336797;28;20320;-69
2023/07/29 09:43:31;;;;;;;2.30;2.10;;;;;;;22.89;54.78;99255.47;10329209;28;20630;-69
2023/07/29 09:48:37;;;;;;;1.77;1.67;;;;;;;22.29;55.03;99269.00;10335601;28;20739;-69
2023/07/29 09:53:43;;;;;;;1.63;1.52;;;;;;;21.86;55.81;99282.88;10330976;28;20241;-68
2023/07/29 09:58:48;;;;;;;1.55;1.45;;;;;;;23.07;53.40;99245.88;10334408;28;20237;-69
2023/07/29 10:03:49;;;;;;;2.63;1.60;;;;;;;22.35;54.06;99289.69;10333380;28;20451;-69
2023/07/29 10:08:52;;;;;;;1.60;1.50;;;;;;;23.40;52.69;99268.88;10332744;28;20248;-69
2023/07/29 10:13:53;;;;;;;1.50;1.40;;;;;;;22.62;52.97;99304.94;10326803;28;20774;-69
2023/07/29 10:19:09;;;;;;;1.50;1.40;;;;;;;23.45;52.14;99300.78;10336300;28;20378;-69
2023/07/29 10:24:18;;;;;;;2.88;1.77;;;;;;;22.75;51.51;99307.06;10330712;28;20335;-68
2023/07/29 10:29:23;;;;;;;1.50;1.40;;;;;;;23.57;50.68;99254.03;10333037;28;20934;-68
2023/07/29 10:34:25;;;;;;;1.67;1.58;;;;;;;23.04;51.37;99279.13;10326383;28;20328;-69
2023/07/29 10:39:27;;;;;;;3.15;1.88;;;;;;;22.39;50.92;99270.91;10324951;28;20707;-70
2023/07/29 10:44:45;;;;;;;2.15;1.60;;;;;;;23.57;50.12;99216.59;10327819;28;20229;-69
2023/07/29 10:49:58;;;;;;;1.63;1.52;;;;;;;22.04;51.07;99286.19;10327777;28;20748;-69
2023/07/29 10:55:01;;;;;;;1.52;1.42;;;;;;;23.43;50.07;99237.44;10328368;28;20727;-68
2023/07/29 11:00:04;;;;;;;1.42;1.33;;;;;;;23.51;49.79;99238.75;10326852;28;20389;-69
2023/07/29 11:06:20;;;;;;;4.30;2.10;;;;;;;20.57;55.36;99194.69;10365894;28;20815;-68
2023/07/29 11:11:22;;;;;;;1.73;1.63;;;;;;;20.17;54.60;99209.69;10338190;28;20635;-69
2023/07/29 11:16:25;;;;;;;2.08;1.50;;;;;;;21.29;53.37;99196.81;10347083;28;20225;-68
2023/07/29 11:21:28;;;;;;;2.00;1.88;;;;;;;21.10;52.96;99221.00;10341203;28;20347;-68
2023/07/29 11:26:29;;;;;;;1.83;1.73;;;;;;;22.11;51.63;99200.34;10342816;28;20233;-68
2023/07/29 11:31:40;;;;;;;5.43;2.30;;;;;;;21.60;52.30;99222.19;10344286;28;20232;-69
2023/07/29 11:36:45;;;;;;;3.45;2.55;;;;;;;21.83;50.91;99219.97;10341450;28;20611;-68
2023/07/29 11:41:47;;;;;;;2.28;1.50;;;;;;;22.12;51.00;99202.00;10343913;28;20245;-69
2023/07/29 11:46:48;;;;;;;1.63;1.52;;;;;;;21.33;50.40;99268.66;10343596;28;20225;-68
2023/07/29 11:51:50;;;;;;;1.50;1.40;;;;;;;23.17;48.82;99177.59;10344525;28;20328;-68
2023/07/29 11:56:52;;;;;;;1.65;1.55;;;;;;;21.88;50.15;99237.16;10344962;28;20621;-68
2023/07/29 12:01:54;;;;;;;5.40;1.70;;;;;;;23.60;48.18;99183.25;10343004;28;20268;-68
2023/07/29 12:06:56;;;;;;;2.45;1.75;;;;;;;22.52;49.48;99211.19;10342667;28;20316;-68
2023/07/29 12:11:58;;;;;;;1.80;1.70;;;;;;;22.13;48.66;99222.72;10344390;28;20299;-68
2023/07/29 12:17:02;;;;;;;1.77;1.67;;;;;;;22.60;47.69;99198.06;10317606;28;20351;-68
2023/07/29 12:22:06;;;;;;;2.35;1.60;;;;;;;23.35;47.73;99169.84;10319197;28;20292;-68
2023/07/29 12:27:12;;;;;;;1.98;1.60;;;;;;;22.83;48.51;99191.94;10314233;28;20280;-68
2023/07/29 12:32:14;;;;;;;1.63;1.50;;;;;;;23.50;46.96;99188.81;10313570;28;20238;-68
2023/07/29 12:37:16;;;;;;;1.70;1.60;;;;;;;23.00;48.08;99174.41;10319725;28;20261;-68
2023/07/29 12:42:18;;;;;;;3.15;1.70;;;;;;;22.88;47.16;99208.28;10315715;28;20241;-68
2023/07/29 12:47:20;;;;;;;1.90;1.73;;;;;;;23.41;47.40;99204.16;10319281;28;20288;-68
2023/07/29 12:52:22;;;;;;;1.67;1.50;;;;;;;22.92;48.26;99214.00;10319150;28;20229;-68
2023/07/29 12:57:24;;;;;;;1.70;1.60;;;;;;;22.92;48.20;99177.72;10317523;28;20262;-69
2023/07/29 13:02:25;;;;;;;1.70;1.58;;;;;;;23.27;47.45;99165.78;10313994;28;20915;-68
2023/07/29 13:07:27;;;;;;;2.28;1.25;;;;;;;23.12;46.50;99171.34;10315667;28;20244;-68
2023/07/29 13:12:29;;;;;;;1.60;1.50;;;;;;;23.45;46.23;99156.91;10318066;28;20222;-68
2023/07/29 13:17:31;;;;;;;2.10;1.55;;;;;;;24.01;45.69;99111.03;10317538;28;20290;-68
2023/07/29 13:22:33;;;;;;;1.23;1.17;;;;;;;22.97;46.59;99180.41;10311456;28;20252;-68
2023/07/29 13:27:34;;;;;;;1.40;1.30;;;;;;;23.07;45.62;99166.75;10310130;28;20233;-68
2023/07/29 13:32:36;;;;;;;2.83;1.90;;;;;;;23.32;46.53;99140.38;10312132;28;20752;-68
2023/07/29 13:37:38;;;;;;;1.98;1.88;;;;;;;23.06;46.19;99135.94;10316605;28;20234;-68
2023/07/29 13:42:40;;;;;;;1.70;1.60;;;;;;;23.48;45.35;99158.22;10310257;28;20221;-68
2023/07/29 13:47:41;;;;;;;1.60;1.50;;;;;;;23.80;45.01;99140.47;10313388;28;20236;-68
2023/07/29 13:52:44;;;;;;;1.63;1.52;;;;;;;22.85;45.74;99178.84;10314647;28;20670;-68
2023/07/29 13:57:45;;;;;;;2.17;1.63;;;;;;;23.36;46.10;99160.53;10311101;28;20238;-68
2023/07/29 14:02:47;;;;;;;2.78;1.75;;;;;;;23.32;45.58;99154.81;10315477;28;20284;-68
2023/07/29 14:07:49;;;;;;;2.60;1.50;;;;;;;24.41;44.10;99095.28;10309339;28;20236;-68
2023/07/29 14:12:51;;;;;;;1.48;1.38;;;;;;;23.77;45.01;99171.09;10310691;28;20302;-68
2023/07/29 14:17:52;;;;;;;1.70;1.60;;;;;;;24.02;45.19;99123.59;10313572;28;20241;-68
2023/07/29 14:22:54;;;;;;;2.90;1.50;;;;;;;23.96;45.28;99161.09;10310817;28;20498;-68
2023/07/29 14:27:56;;;;;;;2.47;1.50;;;;;;;24.36;44.80;99130.88;10307601;28;20237;-68
2023/07/29 14:32:58;;;;;;;1.60;1.40;;;;;;;23.76;45.28;99147.66;10309253;28;20616;-68
2023/07/29 14:37:59;;;;;;;2.53;1.50;;;;;;;23.76;44.59;99147.66;10310209;28;20234;-68
2023/07/29 14:43:01;;;;;;;1.90;1.60;;;;;;;24.42;43.93;99128.88;10308298;28;20321;-68
2023/07/29 14:48:03;;;;;;;2.03;1.77;;;;;;;23.98;44.32;99160.81;10311542;28;20248;-68
2023/07/29 14:53:08;;;;;;;1.85;1.67;;;;;;;24.05;43.90;99106.59;10307908;28;20280;-68
2023/07/29 14:58:09;;;;;;;1.83;1.60;;;;;;;23.74;43.80;99160.78;10303640;28;20234;-69
2023/07/29 15:03:11;;;;;;;1.88;1.77;;;;;;;23.95;43.86;99137.59;10270671;28;20281;-68
2023/07/29 15:08:13;;;;;;;2.53;1.70;;;;;;;24.82;42.73;99102.13;10274515;28;20320;-68
2023/07/29 15:13:14;;;;;;;1.65;1.55;;;;;;;23.76;43.95;99147.66;10272383;28;20352;-68
2023/07/29 15:18:16;;;;;;;2.33;2.00;;;;;;;23.70;43.47;99100.47;10274782;28;20660;-68
2023/07/29 15:23:18;;;;;;;2.03;1.80;;;;;;;24.72;42.33;99071.06;10272404;28;20298;-68
2023/07/29 15:28:20;;;;;;;1.85;1.75;;;;;;;24.45;43.79;99120.91;10281536;28;20863;-68
2023/07/29 15:33:22;;;;;;;1.85;1.67;;;;;;;24.46;45.13;99121.72;10308506;28;20222;-68
2023/07/29 15:38:23;;;;;;;2.00;1.70;;;;;;;25.05;44.67;99040.16;10306882;28;20245;-68
2023/07/29 15:43:25;;;;;;;1.70;1.60;;;;;;;24.50;45.06;99057.16;10298065;28;20353;-68
2023/07/29 15:48:27;;;;;;;3.30;2.08;;;;;;;24.35;45.52;99041.75;10269928;28;20710;-68
2023/07/29 15:53:28;;;;;;;1.77;1.67;;;;;;;25.31;44.11;99043.31;10277397;28;20239;-68
2023/07/29 15:58:30;;;;;;;3.08;1.60;;;;;;;25.28;42.95;99038.41;10277029;28;20356;-68
2023/07/29 16:03:32;;;;;;;2.85;2.20;;;;;;;25.09;43.12;99068.56;10281849;28;20291;-68
2023/07/29 16:08:34;;;;;;;2.10;1.90;;;;;;;24.80;43.37;99074.22;10311662;28;20243;-68
2023/07/29 16:13:35;;;;;;;3.75;1.98;;;;;;;24.87;43.51;99045.38;10311989;28;20371;-68
2023/07/29 16:18:37;;;;;;;2.90;2.17;;;;;;;25.13;43.43;99046.88;10308114;28;20819;-68
2023/07/29 16:23:39;;;;;;;1.92;1.70;;;;;;;25.38;43.27;99075.75;10311065;28;20454;-68
2023/07/29 16:28:41;;;;;;;2.08;1.80;;;;;;;25.38;42.82;99073.03;10310755;28;20436;-68
2023/07/29 16:33:43;;;;;;;2.25;1.90;;;;;;;25.73;41.83;99077.06;10315767;28;20249;-68
2023/07/29 16:38:44;;;;;;;1.88;1.67;;;;;;;25.02;43.10;99096.31;10309475;28;20230;-68
2023/07/29 16:43:46;;;;;;;1.70;1.60;;;;;;;25.15;42.33;99081.03;10311978;28;20435;-68
2023/07/29 16:48:48;;;;;;;1.88;1.77;;;;;;;24.79;42.81;99078.88;10315468;28;20308;-68
2023/07/29 16:53:53;;;;;;;2.83;1.60;;;;;;;24.36;43.87;99073.47;10313307;28;20256;-68
2023/07/29 16:58:54;;;;;;;1.58;1.48;;;;;;;24.78;43.46;99068.22;10313262;28;20724;-68
2023/07/29 17:03:56;;;;;;;2.10;1.90;;;;;;;25.65;41.84;99045.66;10312741;28;20233;-68
2023/07/29 17:08:58;;;;;;;2.97;1.70;;;;;;;24.87;43.34;99041.84;10314887;28;20288;-68
2023/07/29 17:14:00;;;;;;;2.80;1.80;;;;;;;25.16;42.72;99081.88;10313019;28;20767;-68
2023/07/29 17:19:02;;;;;;;2.25;1.83;;;;;;;24.79;43.17;99100.75;10311001;28;20245;-68
2023/07/29 17:24:04;;;;;;;1.85;1.75;;;;;;;25.07;43.53;99054.38;10308118;28;20771;-68
2023/07/29 17:29:06;;;;;;;2.33;1.75;;;;;;;23.57;45.08;99107.38;10300953;28;20230;-68
2023/07/29 17:34:08;;;;;;;2.00;1.80;;;;;;;24.03;44.30;99092.44;10276654;28;20317;-68
2023/07/29 17:39:09;;;;;;;2.60;1.80;;;;;;;25.91;42.56;99047.94;10279992;28;20312;-68
2023/07/29 17:44:11;;;;;;;3.08;1.77;;;;;;;25.14;43.41;99071.22;10275775;28;20234;-68
2023/07/29 17:49:13;;;;;;;1.67;1.55;;;;;;;25.80;42.85;99069.22;10275605;28;20328;-68
2023/07/29 17:54:14;;;;;;;615.72;59.83;;;;;;;25.47;43.39;99084.91;10276625;28;20252;-68
2023/07/29 17:59:16;;;;;;;20.85;3.17;;;;;;;24.75;44.42;99105.22;10273336;28;20317;-68
2023/07/29 18:04:18;;;;;;;2.00;1.90;;;;;;;23.44;47.54;99091.66;10273654;28;20738;-68
2023/07/29 18:09:20;;;;;;;2.20;1.90;;;;;;;23.05;48.92;99096.06;10275943;28;20238;-68
2023/07/29 18:14:22;;;;;;;2.47;2.10;;;;;;;23.08;49.09;99105.63;10277729;28;20242;-68
2023/07/29 18:19:27;;;;;;;2.30;2.10;;;;;;;22.72;50.42;99070.38;10274354;28;20248;-68
2023/07/29 18:24:28;;;;;;;2.22;2.08;;;;;;;23.32;50.01;99036.66;10270426;28;20234;-68
2023/07/29 18:29:32;;;;;;;2.75;2.20;;;;;;;23.04;50.66;99055.41;10272180;28;20258;-70
2023/07/29 18:34:34;;;;;;;3.03;2.40;;;;;;;23.65;50.53;99028.69;10275193;28;20238;-68
2023/07/29 18:39:35;;;;;;;3.90;2.50;;;;;;;21.81;53.56;99088.75;10273928;28;20289;-68
2023/07/29 18:44:37;;;;;;;3.60;2.13;;;;;;;22.77;52.13;99092.16;10287741;28;20249;-68
2023/07/29 18:49:39;;;;;;;2.67;2.13;;;;;;;22.85;51.77;99075.19;10306090;28;20238;-68
2023/07/29 18:54:41;;;;;;;2.40;2.20;;;;;;;22.81;52.08;99084.25;10312901;28;20234;-68
2023/07/29 18:59:43;;;;;;;2.17;1.98;;;;;;;22.97;50.89;99112.22;10307113;28;21383;-69
2023/07/29 19:04:47;;;;;;;2.17;1.85;;;;;;;22.73;51.77;99107.47;10287413;28;20227;-68
2023/07/29 19:09:48;;;;;;;2.50;1.92;;;;;;;23.42;50.03;99105.59;10289995;28;20237;-68
2023/07/29 19:14:50;;;;;;;6.28;1.95;;;;;;;22.94;51.36;99099.16;10304629;28;20257;-69
2023/07/29 19:19:52;;;;;;;3.17;2.25;;;;;;;22.64;51.89;99129.06;10286251;28;20234;-68
2023/07/29 19:24:53;;;;;;;2.35;2.13;;;;;;;21.82;52.64;99167.44;10276267;28;20646;-68
2023/07/29 19:29:55;;;;;;;2.75;2.17;;;;;;;22.33;52.21;99155.63;10294887;28;20233;-68
2023/07/29 19:34:57;;;;;;;5.68;2.65;;;;;;;22.51;51.79;99151.50;10321639;28;20233;-67
2023/07/29 19:39:59;;;;;;;2.83;2.30;;;;;;;22.62;51.07;99193.97;10312420;28;20249;-67
2023/07/29 19:45:00;;;;;;;3.67;2.20;;;;;;;22.22;52.32;99175.81;10321449;28;20245;-68
2023/07/29 19:50:02;;;;;;;2.72;2.50;;;;;;;22.69;52.20;99169.13;10316254;28;20717;-68
2023/07/29 19:55:04;;;;;;;2.95;2.63;;;;;;;21.93;53.72;99176.41;10317521;28;20226;-68
2023/07/29 20:00:07;;;;;;;2.80;2.33;;;;;;;22.71;52.41;99175.13;10317591;28;20605;-68
2023/07/29 20:05:09;;;;;;;2.50;2.28;;;;;;;22.34;53.61;99173.59;10317660;28;20324;-68
2023/07/29 20:10:10;;;;;;;2.70;2.50;;;;;;;22.63;52.85;99172.97;10316525;28;20329;-68
2023/07/29 20:15:12;;;;;;;4.93;2.60;;;;;;;22.93;52.26;99202.00;10313974;28;20364;-68
2023/07/29 20:20:14;;;;;;;3.25;2.80;;;;;;;22.82;52.36;99209.41;10316713;28;20238;-68
2023/07/29 20:25:16;;;;;;;3.08;2.63;;;;;;;23.30;51.72;99195.25;10318976;28;20606;-68
2023/07/29 20:30:17;;;;;;;2.97;2.67;;;;;;;22.99;52.65;99184.47;10311205;28;20880;-68
2023/07/29 20:35:19;;;;;;;3.20;2.70;;;;;;;22.21;54.00;99218.59;10312591;28;20237;-68
2023/07/29 20:40:25;;;;;;;3.63;3.00;;;;;;;22.29;54.59;99192.69;10314804;28;20237;-68
2023/07/29 20:45:26;;;;;;;4.93;2.80;;;;;;;22.38;53.73;99222.91;10313741;28;20227;-68
2023/07/29 20:50:28;;;;;;;3.15;2.85;;;;;;;22.42;53.81;99210.34;10316419;28;20606;-68
2023/07/29 20:55:30;;;;;;;3.90;3.10;;;;;;;22.16;54.70;99205.78;10315643;28;20668;-68
2023/07/29 21:00:32;;;;;;;3.03;2.72;;;;;;;22.66;53.99;99226.94;10311831;28;20233;-68
2023/07/29 21:05:37;;;;;;;5.53;3.13;;;;;;;22.47;54.57;99256.69;10315163;28;20232;-68
2023/07/29 21:10:39;;;;;;;4.15;3.40;;;;;;;22.05;56.65;99261.41;10315795;28;20428;-68
2023/07/29 21:15:40;;;;;;;4.63;3.60;;;;;;;22.28;56.76;99245.56;10313631;28;20229;-69
2023/07/29 21:20:42;;;;;;;4.72;3.63;;;;;;;21.54;58.30;99250.47;10309177;28;20809;-70
2023/07/29 21:25:48;;;;;;;4.43;4.00;;;;;;;21.60;58.13;99252.13;10314383;28;20228;-70
2023/07/29 21:30:50;;;;;;;4.20;3.15;;;;;;;21.31;58.84;99263.47;10313683;28;20807;-70
2023/07/29 21:35:52;;;;;;;4.10;3.50;;;;;;;21.73;57.02;99284.25;10312569;28;20226;-69
2023/07/29 21:40:54;;;;;;;4.85;3.70;;;;;;;21.57;57.84;99307.91;10315536;28;20703;-70
2023/07/29 21:45:55;;;;;;;4.90;3.55;;;;;;;22.41;56.94;99272.25;10310341;28;20233;-70
2023/07/29 21:50:57;;;;;;;4.55;3.30;;;;;;;22.62;56.23;99258.56;10316025;28;20538;-70
2023/07/29 21:56:01;;;;;;;4.28;3.00;;;;;;;20.99;59.16;99302.56;10309113;28;20234;-70
2023/07/29 22:01:03;;;;;;;3.42;2.88;;;;;;;22.02;56.52;99272.03;10313476;28;20320;-70
2023/07/29 22:06:05;;;;;;;4.55;3.35;;;;;;;22.08;56.50;99282.66;10312072;28;20227;-70
2023/07/29 22:11:11;;;;;;;5.47;2.72;;;;;;;22.71;55.22;99274.09;10313079;28;20656;-70
2023/07/29 22:16:13;;;;;;;3.47;2.70;;;;;;;24.05;51.91;99286.16;10311020;28;20286;-70
2023/07/29 22:21:15;;;;;;;2.60;2.40;;;;;;;22.60;54.07;99358.94;10312450;28;20241;-70
2023/07/29 22:26:17;;;;;;;2.50;2.30;;;;;;;22.59;54.49;99351.81;10308959;28;20230;-70
2023/07/29 22:31:19;;;;;;;3.05;2.22;;;;;;;23.31;53.29;99302.50;10309220;28;20242;-70
2023/07/29 22:36:21;;;;;;;2.90;2.60;;;;;;;23.16;53.13;99336.13;10310714;28;20230;-70
2023/07/29 22:41:23;;;;;;;3.38;2.17;;;;;;;23.67;52.48;99322.25;10307062;28;20238;-69
2023/07/29 22:46:24;;;;;;;2.50;2.22;;;;;;;21.85;55.78;99359.44;10305091;28;20238;-70
2023/07/29 22:51:26;;;;;;;2.35;2.13;;;;;;;21.88;55.40;99351.53;10306036;28;20268;-70
2023/07/29 22:56:28;;;;;;;2.72;2.33;;;;;;;21.90;54.94;99359.44;10313555;28;20238;-70
2023/07/29 23:01:30;;;;;;;3.25;2.17;;;;;;;21.97;54.67;99368.19;10308604;28;20234;-71
2023/07/29 23:06:31;;;;;;;2.58;2.13;;;;;;;21.76;55.38;99343.63;10307704;28;20240;-69
2023/07/29 23:11:33;;;;;;;5.68;1.95;;;;;;;20.82;57.35;99332.66;10309831;28;20659;-70
2023/07/29 23:16:35;;;;;;;2.58;2.03;;;;;;;21.31;55.22;99342.41;10313577;28;20234;-73
2023/07/29 23:21:37;;;;;;;3.00;2.08;;;;;;;21.37;54.87;99337.81;10309938;28;20270;-73
2023/07/29 23:26:39;;;;;;;1.80;1.70;;;;;;;21.69;53.88;99332.16;10306936;28;20261;-72